createdAt,value
2018-09-21T00:00:46.668Z,21.06
2018-09-21T00:03:15.255Z,21.07
2018-09-21T00:05:43.988Z,21.01
2018-09-21T00:08:12.592Z,21.01
2018-09-21T00:10:41.163Z,20.99
2018-09-21T00:13:09.728Z,21.07
2018-09-21T00:15:38.420Z,21.10
2018-09-21T00:18:07.081Z,21.08
2018-09-21T00:20:35.655Z,21.08
2018-09-21T00:23:04.611Z,20.98
2018-09-21T00:25:33.192Z,21.03
2018-09-21T00:28:02.232Z,21.02
2018-09-21T00:30:30.956Z,21.03
2018-09-21T00:32:59.831Z,21.01
2018-09-21T00:35:28.432Z,21.07
2018-09-21T00:37:57.116Z,21.03
2018-09-21T00:40:25.724Z,21.07
2018-09-21T00:42:54.295Z,21.08
2018-09-21T00:45:23.436Z,21.20
2018-09-21T00:47:52.008Z,21.21
2018-09-21T00:50:20.603Z,21.21
2018-09-21T00:52:49.210Z,21.18
2018-09-21T00:55:17.782Z,21.24
2018-09-21T00:57:46.360Z,21.29
2018-09-21T01:00:15.006Z,21.31
2018-09-21T01:02:43.619Z,21.32
2018-09-21T01:05:12.204Z,21.33
2018-09-21T01:07:40.976Z,21.34
2018-09-21T01:10:09.559Z,21.32
2018-09-21T01:12:38.120Z,21.32
2018-09-21T01:15:06.719Z,21.30
2018-09-21T01:17:35.684Z,21.31
2018-09-21T01:20:04.303Z,21.36
2018-09-21T01:22:33.572Z,21.42
2018-09-21T01:25:02.156Z,21.46
2018-09-21T01:27:30.772Z,21.44
2018-09-21T01:29:59.944Z,21.53
2018-09-21T01:32:28.540Z,21.61
2018-09-21T01:34:57.593Z,21.68
2018-09-21T01:37:26.284Z,21.75
2018-09-21T01:39:54.933Z,21.91
2018-09-21T01:42:23.500Z,21.95
2018-09-21T01:44:52.405Z,21.99
2018-09-21T01:47:21.646Z,22.04
2018-09-21T01:49:50.652Z,22.00
2018-09-21T01:52:19.684Z,22.09
2018-09-21T01:54:48.572Z,22.06
2018-09-21T01:57:17.630Z,22.12
2018-09-21T01:59:46.356Z,21.97
2018-09-21T02:02:15.177Z,21.82
2018-09-21T02:04:43.756Z,21.81
2018-09-21T02:07:13.031Z,21.61
2018-09-21T02:09:41.734Z,21.60
2018-09-21T02:12:10.379Z,21.45
2018-09-21T02:14:39.032Z,21.42
2018-09-21T02:17:07.656Z,21.47
2018-09-21T02:19:36.288Z,21.39
2018-09-21T02:22:05.013Z,21.47
2018-09-21T02:24:33.616Z,21.44
2018-09-21T02:27:02.212Z,21.46
2018-09-21T02:29:30.819Z,21.54
2018-09-21T02:31:59.823Z,21.58
2018-09-21T02:34:28.436Z,21.52
2018-09-21T02:36:57.297Z,21.54
2018-09-21T02:39:26.880Z,21.53
2018-09-21T02:41:55.443Z,21.55
2018-09-21T02:44:24.663Z,21.48
2018-09-21T02:46:53.232Z,21.34
2018-09-21T02:49:21.864Z,21.35
2018-09-21T02:51:50.604Z,21.39
2018-09-21T02:54:19.173Z,21.32
2018-09-21T02:56:47.809Z,21.36
2018-09-21T02:59:16.416Z,21.35
2018-09-21T03:01:44.989Z,21.30
2018-09-21T03:04:13.575Z,21.25
2018-09-21T03:06:42.643Z,21.23
2018-09-21T03:09:11.811Z,21.18
2018-09-21T03:11:40.386Z,21.17
2018-09-21T03:14:09.080Z,21.18
2018-09-21T03:16:37.676Z,21.20
2018-09-21T03:19:06.291Z,21.14
2018-09-21T03:21:34.916Z,21.20
2018-09-21T03:24:03.498Z,21.23
2018-09-21T03:26:32.744Z,21.22
2018-09-21T03:29:01.380Z,21.31
2018-09-21T03:31:29.992Z,21.31
2018-09-21T03:33:58.620Z,21.32
2018-09-21T03:36:27.508Z,21.34
2018-09-21T03:38:56.081Z,21.34
2018-09-21T03:41:25.075Z,21.37
2018-09-21T03:43:54.324Z,21.40
2018-09-21T03:46:23.300Z,21.45
2018-09-21T03:48:51.952Z,21.35
2018-09-21T03:51:20.632Z,21.34
2018-09-21T03:53:49.992Z,21.30
2018-09-21T03:56:18.585Z,21.28
2018-09-21T03:58:47.312Z,21.22
2018-09-21T04:01:15.962Z,21.20
2018-09-21T04:03:44.521Z,21.22
2018-09-21T04:06:13.512Z,21.13
2018-09-21T04:08:42.102Z,21.12
2018-09-21T04:11:10.683Z,21.10
2018-09-21T04:13:39.832Z,21.11
2018-09-21T04:16:08.895Z,21.07
2018-09-21T04:18:37.888Z,21.04
2018-09-21T04:21:07.227Z,21.08
2018-09-21T04:23:35.867Z,21.06
2018-09-21T04:26:04.476Z,21.05
2018-09-21T04:28:33.315Z,21.03
2018-09-21T04:31:01.893Z,21.03
2018-09-21T04:33:30.787Z,21.02
2018-09-21T04:35:59.950Z,21.02
2018-09-21T04:38:29.147Z,20.97
2018-09-21T04:40:57.781Z,21.00
2018-09-21T04:43:26.468Z,21.00
2018-09-21T04:45:55.132Z,21.00
2018-09-21T04:48:23.638Z,20.96
2018-09-21T04:50:52.288Z,20.93
2018-09-21T04:53:22.238Z,20.88
2018-09-21T04:55:51.203Z,20.93
2018-09-21T04:58:20.356Z,20.90
2018-09-21T05:00:49.027Z,20.87
2018-09-21T05:03:17.622Z,20.94
2018-09-21T05:05:48.272Z,20.97
2018-09-21T05:08:17.087Z,21.03
2018-09-21T05:10:45.928Z,21.09
2018-09-21T05:13:14.942Z,21.10
2018-09-21T05:15:43.520Z,21.03
2018-09-21T05:18:12.115Z,21.10
2018-09-21T05:20:40.860Z,21.17
2018-09-21T05:23:09.872Z,21.16
2018-09-21T05:25:38.464Z,21.11
2018-09-21T05:28:07.648Z,21.18
2018-09-21T05:30:36.215Z,21.19
2018-09-21T05:33:04.789Z,21.17
2018-09-21T05:35:33.836Z,21.25
2018-09-21T05:38:02.439Z,21.28
2018-09-21T05:40:31.008Z,21.32
2018-09-21T05:42:59.623Z,21.33
2018-09-21T05:45:28.679Z,21.43
2018-09-21T05:47:57.720Z,21.56
2018-09-21T05:50:26.332Z,21.66
2018-09-21T05:52:54.916Z,21.85
2018-09-21T05:55:23.504Z,22.04
2018-09-21T05:57:52.204Z,22.16
2018-09-21T06:00:20.808Z,22.23
2018-09-21T06:02:49.755Z,22.31
2018-09-21T06:05:18.404Z,22.50
2018-09-21T06:07:47.483Z,22.68
2018-09-21T06:10:16.011Z,22.81
2018-09-21T06:12:44.656Z,22.77
2018-09-21T06:15:13.243Z,22.89
2018-09-21T06:17:41.822Z,22.84
2018-09-21T06:20:12.971Z,22.86
2018-09-21T06:22:45.102Z,23.00
2018-09-21T06:25:08.171Z,23.12
2018-09-21T06:27:36.918Z,23.31
2018-09-21T06:30:05.878Z,23.49
2018-09-21T06:32:34.477Z,23.57
2018-09-21T06:35:03.144Z,23.75
2018-09-21T06:37:31.732Z,23.75
2018-09-21T06:40:00.756Z,23.97
2018-09-21T06:42:29.904Z,24.27
2018-09-21T06:44:59.076Z,24.50
2018-09-21T06:47:27.673Z,24.48
2018-09-21T06:49:57.413Z,24.72
2018-09-21T06:52:25.977Z,24.79
2018-09-21T06:54:54.588Z,24.77
2018-09-21T06:57:23.215Z,24.94
2018-09-21T06:59:51.811Z,24.82
2018-09-21T07:02:20.414Z,24.62
2018-09-21T07:04:49.024Z,24.24
2018-09-21T07:07:18.111Z,24.28
2018-09-21T07:09:46.700Z,24.38
2018-09-21T07:12:15.357Z,24.62
2018-09-21T07:14:43.961Z,25.14
2018-09-21T07:17:13.670Z,25.73
2018-09-21T07:19:42.316Z,26.20
2018-09-21T07:22:10.902Z,26.52
2018-09-21T07:24:39.482Z,26.82
2018-09-21T07:27:08.173Z,27.27
2018-09-21T07:29:36.769Z,27.30
2018-09-21T07:32:05.377Z,27.41
2018-09-21T07:34:34.076Z,27.59
2018-09-21T07:37:02.657Z,27.81
2018-09-21T07:39:31.460Z,27.90
2018-09-21T07:42:00.278Z,27.55
2018-09-21T07:44:28.991Z,27.26
2018-09-21T07:46:57.907Z,27.14
2018-09-21T07:49:26.620Z,26.89
2018-09-21T07:51:55.207Z,26.83
2018-09-21T07:54:24.207Z,26.86
2018-09-21T07:56:52.777Z,26.98
2018-09-21T07:59:21.368Z,27.41
2018-09-21T08:01:49.968Z,27.10
2018-09-21T08:04:18.583Z,26.93
2018-09-21T08:06:47.168Z,26.82
2018-09-21T08:09:15.751Z,26.67
2018-09-21T08:11:44.431Z,26.63
2018-09-21T08:14:13.360Z,26.74
2018-09-21T08:16:41.952Z,26.69
2018-09-21T08:19:11.117Z,26.68
2018-09-21T08:21:39.701Z,26.69
2018-09-21T08:24:08.268Z,26.70
2018-09-21T08:26:37.636Z,26.65
2018-09-21T08:29:06.211Z,26.72
2018-09-21T08:31:34.904Z,26.72
2018-09-21T08:34:03.712Z,26.76
2018-09-21T08:36:32.331Z,26.77
2018-09-21T08:39:00.935Z,26.98
2018-09-21T08:41:29.548Z,27.25
2018-09-21T08:43:58.116Z,27.64
2018-09-21T08:46:26.733Z,28.39
2018-09-21T08:48:55.448Z,28.80
2018-09-21T08:51:24.024Z,29.52
2018-09-21T08:53:52.642Z,30.04
2018-09-21T08:56:21.796Z,29.54
2018-09-21T08:58:50.489Z,29.23
2018-09-21T09:01:19.125Z,28.75
2018-09-21T09:03:48.251Z,28.81
2018-09-21T09:06:16.832Z,28.68
2018-09-21T09:08:45.895Z,28.47
2018-09-21T09:11:14.544Z,28.52
2018-09-21T09:13:43.117Z,28.50
2018-09-21T09:16:12.724Z,28.67
2018-09-21T09:18:41.603Z,28.87
2018-09-21T09:21:10.196Z,28.97
2018-09-21T09:23:38.812Z,29.02
2018-09-21T09:26:07.455Z,28.70
2018-09-21T09:28:36.021Z,29.00
2018-09-21T09:31:05.507Z,29.00
2018-09-21T09:33:34.187Z,29.30
2018-09-21T09:36:02.943Z,29.84
2018-09-21T09:38:31.528Z,30.55
2018-09-21T09:41:00.668Z,31.10
2018-09-21T09:43:29.248Z,31.58
2018-09-21T09:45:57.823Z,31.11
2018-09-21T09:48:26.529Z,30.72
2018-09-21T09:50:55.102Z,30.50
2018-09-21T09:53:23.707Z,30.16
2018-09-21T09:55:52.486Z,29.98
2018-09-21T09:58:21.052Z,29.74
2018-09-21T10:00:51.715Z,29.61
2018-09-21T10:03:21.797Z,29.45
2018-09-21T10:05:50.375Z,29.24
2018-09-21T10:08:19.056Z,29.31
2018-09-21T10:10:47.652Z,29.14
2018-09-21T10:13:16.639Z,28.87
2018-09-21T10:15:45.336Z,28.73
2018-09-21T10:18:13.944Z,28.75
2018-09-21T10:20:42.609Z,28.61
2018-09-21T10:23:11.656Z,28.85
2018-09-21T10:25:40.293Z,28.83
2018-09-21T10:28:09.065Z,28.96
2018-09-21T10:30:37.951Z,28.96
2018-09-21T10:33:06.643Z,28.88
2018-09-21T10:35:35.415Z,28.95
2018-09-21T10:38:04.023Z,28.81
2018-09-21T10:40:32.719Z,29.06
2018-09-21T10:43:01.389Z,29.29
2018-09-21T10:45:30.032Z,29.63
2018-09-21T10:47:59.270Z,29.87
2018-09-21T10:50:28.317Z,29.70
2018-09-21T10:52:57.327Z,29.51
2018-09-21T10:55:25.932Z,29.62
2018-09-21T10:57:54.511Z,29.76
2018-09-21T11:00:23.470Z,29.64
2018-09-21T11:02:52.091Z,29.61
2018-09-21T11:05:21.124Z,29.40
2018-09-21T11:07:49.844Z,29.35
2018-09-21T11:10:18.508Z,29.25
2018-09-21T11:12:47.084Z,29.10
2018-09-21T11:15:15.776Z,28.96
2018-09-21T11:17:44.364Z,28.99
2018-09-21T11:20:13.397Z,28.89
2018-09-21T11:22:42.100Z,28.71
2018-09-21T11:25:10.688Z,28.73
2018-09-21T11:27:39.260Z,28.71
2018-09-21T11:30:07.902Z,28.76
2018-09-21T11:32:36.493Z,28.67
2018-09-21T11:35:05.092Z,28.71
2018-09-21T11:37:33.813Z,28.51
2018-09-21T11:40:02.392Z,28.59
2018-09-21T11:42:30.959Z,28.63
2018-09-21T11:44:59.556Z,28.63
2018-09-21T11:47:28.715Z,28.50
2018-09-21T11:49:57.192Z,28.42
2018-09-21T11:52:25.851Z,28.59
2018-09-21T11:54:54.435Z,28.58
2018-09-21T11:57:23.012Z,28.47
2018-09-21T11:59:51.728Z,28.54
2018-09-21T12:02:20.308Z,28.55
2018-09-21T12:04:48.936Z,28.59
2018-09-21T12:07:17.932Z,28.51
2018-09-21T12:09:46.521Z,28.60
2018-09-21T12:12:15.110Z,28.64
2018-09-21T12:14:44.131Z,28.58
2018-09-21T12:17:13.085Z,28.44
2018-09-21T12:19:41.712Z,28.46
2018-09-21T12:22:10.325Z,28.44
2018-09-21T12:24:38.911Z,28.55
2018-09-21T12:27:07.500Z,28.60
2018-09-21T12:29:36.518Z,28.53
2018-09-21T12:32:05.205Z,28.68
2018-09-21T12:34:33.775Z,28.72
2018-09-21T12:37:02.409Z,28.63
2018-09-21T12:39:30.988Z,28.38
2018-09-21T12:41:59.599Z,28.53
2018-09-21T12:44:28.535Z,28.24
2018-09-21T12:46:57.131Z,28.31
2018-09-21T12:49:25.703Z,28.24
2018-09-21T12:51:54.440Z,28.22
2018-09-21T12:54:23.045Z,28.18
2018-09-21T12:56:51.625Z,28.13
2018-09-21T12:59:20.734Z,28.19
2018-09-21T13:01:49.291Z,28.11
2018-09-21T13:04:17.870Z,27.90
2018-09-21T13:06:46.588Z,27.86
2018-09-21T13:09:15.209Z,27.94
2018-09-21T13:11:43.793Z,28.16
2018-09-21T13:14:12.485Z,28.13
2018-09-21T13:16:41.113Z,28.25
2018-09-21T13:19:09.707Z,28.25
2018-09-21T13:21:38.425Z,28.16
2018-09-21T13:24:07.076Z,28.24
2018-09-21T13:26:35.700Z,28.17
2018-09-21T13:29:04.323Z,28.19
2018-09-21T13:31:32.903Z,28.14
2018-09-21T13:34:01.483Z,28.00
2018-09-21T13:36:30.407Z,28.20
2018-09-21T13:38:59.701Z,28.21
2018-09-21T13:41:28.303Z,27.89
2018-09-21T13:43:56.915Z,27.95
2018-09-21T13:46:25.485Z,28.01
2018-09-21T13:48:54.100Z,28.00
2018-09-21T13:51:23.075Z,27.94
2018-09-21T13:53:51.737Z,27.75
2018-09-21T13:56:20.307Z,28.00
2018-09-21T13:58:48.964Z,28.03
2018-09-21T14:01:17.556Z,28.03
2018-09-21T14:03:46.164Z,28.15
2018-09-21T14:06:14.887Z,28.12
2018-09-21T14:08:43.451Z,28.13
2018-09-21T14:11:12.051Z,28.13
2018-09-21T14:13:40.749Z,28.07
2018-09-21T14:16:09.340Z,27.93
2018-09-21T14:18:37.976Z,27.95
2018-09-21T14:21:06.831Z,27.85
2018-09-21T14:23:35.540Z,27.76
2018-09-21T14:26:04.125Z,27.58
2018-09-21T14:28:32.884Z,27.48
2018-09-21T14:31:01.496Z,27.40
2018-09-21T14:33:30.104Z,27.57
2018-09-21T14:35:59.474Z,27.48
2018-09-21T14:38:28.089Z,27.47
2018-09-21T14:40:56.680Z,27.35
2018-09-21T14:43:25.705Z,27.28
2018-09-21T14:45:54.301Z,27.10
2018-09-21T14:48:22.904Z,27.42
2018-09-21T14:50:51.548Z,27.35
2018-09-21T14:53:20.150Z,27.35
2018-09-21T14:55:48.756Z,27.32
2018-09-21T14:58:17.371Z,27.23
2018-09-21T15:00:45.956Z,27.16
2018-09-21T15:03:14.548Z,27.14
2018-09-21T15:05:43.226Z,27.06
2018-09-21T15:08:12.293Z,27.02
2018-09-21T15:10:40.908Z,27.10
2018-09-21T15:13:09.636Z,26.99
2018-09-21T15:15:38.344Z,26.96
2018-09-21T15:18:06.925Z,26.92
2018-09-21T15:20:35.992Z,26.65
2018-09-21T15:23:04.592Z,26.47
2018-09-21T15:25:33.192Z,25.97
2018-09-21T15:28:01.799Z,25.55
2018-09-21T15:30:30.375Z,25.29
2018-09-21T15:32:58.943Z,25.12
2018-09-21T15:35:27.657Z,24.76
2018-09-21T15:37:56.567Z,24.25
2018-09-21T15:40:25.652Z,23.34
2018-09-21T15:42:54.302Z,22.17
2018-09-21T15:45:22.934Z,22.23
2018-09-21T15:47:51.597Z,21.93
2018-09-21T15:50:20.333Z,21.63
2018-09-21T15:52:49.872Z,21.22
2018-09-21T15:55:18.445Z,21.03
2018-09-21T15:57:47.055Z,20.98
2018-09-21T16:00:16.475Z,21.08
2018-09-21T16:02:45.056Z,21.03
2018-09-21T16:05:13.988Z,20.78
2018-09-21T16:07:42.705Z,20.55
2018-09-21T16:10:11.748Z,20.43
2018-09-21T16:12:40.439Z,20.31
2018-09-21T16:15:09.632Z,20.26
2018-09-21T16:17:38.482Z,20.21
2018-09-21T16:20:07.447Z,20.15
2018-09-21T16:22:36.020Z,20.14
2018-09-21T16:25:05.849Z,20.12
2018-09-21T16:27:34.940Z,20.10
2018-09-21T16:30:03.535Z,19.84
2018-09-21T16:32:34.134Z,19.70
2018-09-21T16:35:02.779Z,19.63
2018-09-21T16:37:31.923Z,19.64
2018-09-21T16:40:00.522Z,19.55
2018-09-21T16:42:30.793Z,19.46
2018-09-21T16:44:59.431Z,19.34
2018-09-21T16:47:27.996Z,19.21
2018-09-21T16:49:56.714Z,19.07
2018-09-21T16:52:25.878Z,19.03
2018-09-21T16:54:54.417Z,19.06
2018-09-21T16:57:23.143Z,18.98
2018-09-21T16:59:52.277Z,18.92
2018-09-21T17:02:20.860Z,19.02
2018-09-21T17:04:49.486Z,19.00
2018-09-21T17:07:18.649Z,18.90
2018-09-21T17:09:48.980Z,18.83
2018-09-21T17:12:19.279Z,18.84
2018-09-21T17:14:47.872Z,18.90
2018-09-21T17:17:16.512Z,18.81
2018-09-21T17:19:45.476Z,18.86
2018-09-21T17:22:14.060Z,18.86
2018-09-21T17:24:42.752Z,18.87
2018-09-21T17:27:12.172Z,18.70
2018-09-21T17:29:40.775Z,18.64
2018-09-21T17:32:09.537Z,18.71
2018-09-21T17:34:38.091Z,18.75
2018-09-21T17:37:07.102Z,18.63
2018-09-21T17:39:35.711Z,18.68
2018-09-21T17:42:04.307Z,18.52
2018-09-21T17:44:32.937Z,18.60
2018-09-21T17:47:01.678Z,18.63
2018-09-21T17:49:30.292Z,18.49
2018-09-21T17:51:59.467Z,18.49
2018-09-21T17:54:28.065Z,18.45
2018-09-21T17:56:57.436Z,18.39
2018-09-21T17:59:26.039Z,18.41
2018-09-21T18:01:54.684Z,18.47
2018-09-21T18:04:23.252Z,18.50
2018-09-21T18:06:51.948Z,18.34
2018-09-21T18:09:20.549Z,18.37
2018-09-21T18:11:49.128Z,18.31
2018-09-21T18:14:17.707Z,18.29
2018-09-21T18:16:46.391Z,18.35
2018-09-21T18:19:15.062Z,18.39
2018-09-21T18:21:43.676Z,18.29
2018-09-21T18:24:12.275Z,18.27
2018-09-21T18:26:40.855Z,18.27
2018-09-21T18:29:09.436Z,18.25
2018-09-21T18:31:38.275Z,18.25
2018-09-21T18:34:06.952Z,18.23
2018-09-21T18:36:35.528Z,18.27
2018-09-21T18:39:05.768Z,18.07
2018-09-21T18:41:34.357Z,18.17
2018-09-21T18:44:02.980Z,18.23
2018-09-21T18:46:31.695Z,18.13
2018-09-21T18:49:00.419Z,18.07
2018-09-21T18:51:29.008Z,18.19
2018-09-21T18:53:57.720Z,18.12
2018-09-21T18:56:26.300Z,18.11
2018-09-21T18:58:54.976Z,18.12
2018-09-21T19:01:23.680Z,17.92
2018-09-21T19:03:52.333Z,17.94
2018-09-21T19:06:20.891Z,17.91
2018-09-21T19:08:49.614Z,17.89
2018-09-21T19:11:18.216Z,17.87
2018-09-21T19:13:46.810Z,17.90
2018-09-21T19:16:15.743Z,17.90
2018-09-21T19:18:44.416Z,17.91
2018-09-21T19:21:13.031Z,17.85
2018-09-21T19:23:41.668Z,17.75
2018-09-21T19:26:10.348Z,17.74
2018-09-21T19:28:38.932Z,17.71
2018-09-21T19:31:07.589Z,17.73
2018-09-21T19:33:36.171Z,17.80
2018-09-21T19:36:04.765Z,17.84
2018-09-21T19:38:33.440Z,17.84
2018-09-21T19:41:02.023Z,17.83
2018-09-21T19:43:30.612Z,17.85
2018-09-21T19:45:59.213Z,17.84
2018-09-21T19:48:27.776Z,17.90
2018-09-21T19:50:56.367Z,17.88
2018-09-21T19:53:25.072Z,17.82
2018-09-21T19:55:53.633Z,17.83
2018-09-21T19:58:22.247Z,17.82
2018-09-21T20:00:50.932Z,17.84
2018-09-21T20:03:19.576Z,17.85
2018-09-21T20:05:48.208Z,17.85
2018-09-21T20:08:16.912Z,17.86
2018-09-21T20:10:45.492Z,17.77
2018-09-21T20:13:14.094Z,17.68
2018-09-21T20:15:42.714Z,17.72
2018-09-21T20:18:11.290Z,17.77
2018-09-21T20:20:39.855Z,17.74
2018-09-21T20:23:08.556Z,17.86
2018-09-21T20:25:37.193Z,17.84
2018-09-21T20:28:05.763Z,17.79
2018-09-21T20:30:39.858Z,17.77
2018-09-21T20:33:13.752Z,17.83
2018-09-21T20:35:42.487Z,17.88
2018-09-21T20:38:11.068Z,17.87
2018-09-21T20:40:39.688Z,17.92
2018-09-21T20:43:08.359Z,17.93
2018-09-21T20:45:36.950Z,17.83
2018-09-21T20:48:05.545Z,17.90
2018-09-21T20:50:34.643Z,17.93
2018-09-21T20:53:03.675Z,17.96
2018-09-21T20:55:32.284Z,17.91
2018-09-21T20:58:00.956Z,17.91
2018-09-21T21:00:29.560Z,17.91
2018-09-21T21:02:58.153Z,17.90
2018-09-21T21:05:27.081Z,17.83
2018-09-21T21:07:55.986Z,17.84
2018-09-21T21:10:24.677Z,17.94
2018-09-21T21:12:53.295Z,17.83
2018-09-21T21:15:21.896Z,17.74
2018-09-21T21:17:50.496Z,17.86
2018-09-21T21:20:19.270Z,17.80
2018-09-21T21:22:47.874Z,17.88
2018-09-21T21:25:16.804Z,17.82
2018-09-21T21:27:45.468Z,17.97
2018-09-21T21:30:14.068Z,17.97
2018-09-21T21:32:43.277Z,18.00
2018-09-21T21:35:11.908Z,17.98
2018-09-21T21:37:40.509Z,18.06
2018-09-21T21:40:09.334Z,18.12
2018-09-21T21:42:38.056Z,18.07
2018-09-21T21:45:06.668Z,18.05
2018-09-21T21:47:35.252Z,18.08
2018-09-21T21:50:03.881Z,18.08
2018-09-21T21:52:32.455Z,18.05
2018-09-21T21:55:01.044Z,18.06
2018-09-21T21:57:29.805Z,18.09
2018-09-21T21:59:58.444Z,17.97
2018-09-21T22:02:27.090Z,18.06
2018-09-21T22:04:56.252Z,18.03
2018-09-21T22:07:24.912Z,18.06
2018-09-21T22:09:53.494Z,18.10
2018-09-21T22:12:27.283Z,17.99
2018-09-21T22:14:55.864Z,17.89
2018-09-21T22:17:24.444Z,17.96
2018-09-21T22:19:53.492Z,18.04
2018-09-21T22:22:22.071Z,17.98
2018-09-21T22:24:50.776Z,18.00
2018-09-21T22:27:19.785Z,18.05
2018-09-21T22:29:48.392Z,18.03
2018-09-21T22:32:17.515Z,17.98
2018-09-21T22:34:46.600Z,17.98
2018-09-21T22:37:15.585Z,17.99
2018-09-21T22:39:44.189Z,17.89
2018-09-21T22:42:12.908Z,17.90
2018-09-21T22:44:42.568Z,17.87
2018-09-21T22:47:11.140Z,17.90
2018-09-21T22:49:39.739Z,17.90
2018-09-21T22:52:09.285Z,17.88
2018-09-21T22:54:37.872Z,17.86
2018-09-21T22:57:06.980Z,17.80
2018-09-21T22:59:35.556Z,17.79
2018-09-21T23:02:04.667Z,17.79
2018-09-21T23:04:33.495Z,17.83
2018-09-21T23:07:02.872Z,17.71
2018-09-21T23:09:31.442Z,17.67
2018-09-21T23:12:00.508Z,17.75
2018-09-21T23:14:29.104Z,17.64
2018-09-21T23:16:57.692Z,17.61
2018-09-21T23:19:26.308Z,17.66
2018-09-21T23:21:54.914Z,17.64
2018-09-21T23:24:23.917Z,17.59
2018-09-21T23:26:52.543Z,17.59
2018-09-21T23:29:21.247Z,17.53
2018-09-21T23:31:49.872Z,17.48
2018-09-21T23:34:18.588Z,17.50
2018-09-21T23:36:47.160Z,17.52
2018-09-21T23:39:15.767Z,17.46
2018-09-21T23:41:44.396Z,17.51
2018-09-21T23:44:12.956Z,17.45
2018-09-21T23:46:41.540Z,17.44
2018-09-21T23:49:10.244Z,17.43
2018-09-21T23:51:39.353Z,17.38
2018-09-21T23:54:08.388Z,17.37
2018-09-21T23:56:37.087Z,17.24
2018-09-21T23:59:05.692Z,17.13
